createdAt,value
2022-10-17T00:00:09.635Z,99.99
2022-10-17T00:01:09.693Z,99.99
2022-10-17T00:02:09.608Z,99.99
2022-10-17T00:03:09.596Z,99.99
2022-10-17T00:04:09.584Z,99.99
2022-10-17T00:05:09.570Z,99.99
2022-10-17T00:06:09.557Z,99.99
2022-10-17T00:07:09.547Z,99.99
2022-10-17T00:08:09.531Z,99.99
2022-10-17T00:09:09.520Z,99.99
2022-10-17T00:10:09.505Z,99.99
2022-10-17T00:11:09.494Z,99.99
2022-10-17T00:12:09.480Z,99.99
2022-10-17T00:13:09.500Z,99.99
2022-10-17T00:14:09.452Z,99.99
2022-10-17T00:15:09.445Z,99.99
2022-10-17T00:16:09.434Z,99.99
2022-10-17T00:17:09.417Z,99.99
2022-10-17T00:18:09.404Z,99.99
2022-10-17T00:19:09.392Z,99.99
2022-10-17T00:20:09.386Z,99.99
2022-10-17T00:21:09.366Z,99.99
2022-10-17T00:22:09.353Z,99.99
2022-10-17T00:23:15.349Z,99.99
2022-10-17T00:24:09.332Z,99.99
2022-10-17T00:25:09.320Z,99.99
2022-10-17T00:26:09.306Z,99.99
2022-10-17T00:27:09.290Z,99.99
2022-10-17T00:28:09.277Z,99.99
2022-10-17T00:29:09.393Z,99.99
2022-10-17T00:30:09.254Z,99.99
2022-10-17T00:31:09.236Z,99.99
2022-10-17T00:32:09.224Z,99.99
2022-10-17T00:33:09.224Z,99.99
2022-10-17T00:34:09.197Z,99.99
2022-10-17T00:35:09.189Z,99.99
2022-10-17T00:36:09.179Z,99.99
2022-10-17T00:37:09.167Z,99.99
2022-10-17T00:38:09.149Z,99.99
2022-10-17T00:39:09.137Z,99.99
2022-10-17T00:40:09.125Z,99.99
2022-10-17T00:41:09.112Z,99.99
2022-10-17T00:42:09.095Z,99.99
2022-10-17T00:43:09.083Z,99.99
2022-10-17T00:44:09.076Z,99.99
2022-10-17T00:45:09.084Z,99.99
2022-10-17T00:46:09.043Z,99.99
2022-10-17T00:47:09.033Z,99.99
2022-10-17T00:48:09.017Z,99.99
2022-10-17T00:49:09.010Z,99.99
2022-10-17T00:50:09.001Z,99.99
2022-10-17T00:51:08.981Z,99.99
2022-10-17T00:52:08.967Z,99.99
2022-10-17T00:53:08.955Z,99.99
2022-10-17T00:54:08.942Z,99.99
2022-10-17T00:55:09.126Z,99.99
2022-10-17T00:56:08.919Z,99.99
2022-10-17T00:57:08.904Z,99.99
2022-10-17T00:58:08.897Z,99.99
2022-10-17T00:59:08.903Z,99.99
2022-10-17T01:00:08.871Z,99.99
2022-10-17T01:01:08.925Z,99.99
2022-10-17T01:02:08.841Z,99.99
2022-10-17T01:03:08.831Z,99.99
2022-10-17T01:04:08.819Z,99.99
2022-10-17T01:05:08.806Z,99.99
2022-10-17T01:06:08.792Z,99.99
2022-10-17T01:07:08.779Z,99.99
2022-10-17T01:08:08.774Z,99.99
2022-10-17T01:09:08.750Z,99.99
2022-10-17T01:10:08.881Z,99.99
2022-10-17T01:11:08.726Z,99.99
2022-10-17T01:12:08.713Z,99.99
2022-10-17T01:13:08.702Z,99.99
2022-10-17T01:14:08.692Z,99.99
2022-10-17T01:15:08.675Z,99.99
2022-10-17T01:16:08.677Z,99.99
2022-10-17T01:17:08.672Z,99.99
2022-10-17T01:18:08.637Z,99.99
2022-10-17T01:19:08.622Z,99.99
2022-10-17T01:20:08.611Z,99.99
2022-10-17T01:21:08.596Z,99.99
2022-10-17T01:22:08.587Z,99.99
2022-10-17T01:23:14.576Z,99.99
2022-10-17T01:24:08.560Z,99.99
2022-10-17T01:25:08.545Z,99.99
2022-10-17T01:26:08.532Z,99.99
2022-10-17T01:27:08.521Z,99.99
2022-10-17T01:28:08.505Z,99.99
2022-10-17T01:29:08.493Z,99.99
2022-10-17T01:30:08.684Z,99.99
2022-10-17T01:31:08.479Z,99.99
2022-10-17T01:32:08.459Z,99.99
2022-10-17T01:33:08.661Z,99.99
2022-10-17T01:34:08.624Z,99.99
2022-10-17T01:35:08.620Z,99.99
2022-10-17T01:36:08.409Z,99.99
2022-10-17T01:37:08.395Z,99.99
2022-10-17T01:38:08.387Z,99.99
2022-10-17T01:39:08.372Z,99.99
2022-10-17T01:40:08.352Z,99.99
2022-10-17T01:41:08.339Z,99.99
2022-10-17T01:42:08.336Z,99.99
2022-10-17T01:43:08.320Z,99.99
2022-10-17T01:44:08.302Z,99.99
2022-10-17T01:45:08.288Z,99.99
2022-10-17T01:46:08.278Z,99.99
2022-10-17T01:47:08.266Z,99.99
2022-10-17T01:48:08.253Z,99.99
2022-10-17T01:49:08.263Z,99.99
2022-10-17T01:50:08.227Z,99.99
2022-10-17T01:51:08.214Z,99.99
2022-10-17T01:52:08.200Z,99.99
2022-10-17T01:53:08.191Z,99.99
2022-10-17T01:54:08.175Z,99.99
2022-10-17T01:55:08.161Z,99.99
2022-10-17T01:56:08.153Z,99.99
2022-10-17T01:57:08.145Z,99.99
2022-10-17T01:58:08.119Z,99.99
2022-10-17T01:59:08.110Z,99.99
2022-10-17T02:00:08.101Z,99.99
2022-10-17T02:01:08.141Z,99.99
2022-10-17T02:02:08.071Z,99.99
2022-10-17T02:03:08.059Z,99.99
2022-10-17T02:04:08.042Z,99.99
2022-10-17T02:05:08.055Z,99.99
2022-10-17T02:06:08.025Z,99.99
2022-10-17T02:07:08.017Z,99.99
2022-10-17T02:08:07.993Z,99.99
2022-10-17T02:09:07.980Z,99.99
2022-10-17T02:10:07.967Z,99.99
2022-10-17T02:11:07.954Z,99.99
2022-10-17T02:12:07.944Z,99.99
2022-10-17T02:13:07.932Z,99.99
2022-10-17T02:14:07.985Z,99.99
2022-10-17T02:15:07.903Z,99.99
2022-10-17T02:16:07.890Z,99.99
2022-10-17T02:17:07.880Z,99.99
2022-10-17T02:18:07.865Z,99.99
2022-10-17T02:19:07.853Z,99.99
2022-10-17T02:20:07.841Z,99.99
2022-10-17T02:21:07.888Z,99.99
2022-10-17T02:22:07.815Z,99.99
2022-10-17T02:23:07.854Z,99.99
2022-10-17T02:24:07.787Z,99.99
2022-10-17T02:25:07.776Z,99.99
2022-10-17T02:26:07.762Z,99.99
2022-10-17T02:27:07.752Z,99.99
2022-10-17T02:28:07.736Z,99.99
2022-10-17T02:29:07.722Z,99.99
2022-10-17T02:30:07.720Z,99.99
2022-10-17T02:31:07.699Z,99.99
2022-10-17T02:32:07.686Z,99.99
2022-10-17T02:33:07.672Z,99.99
2022-10-17T02:34:07.666Z,99.99
2022-10-17T02:35:07.644Z,99.99
2022-10-17T02:36:07.635Z,99.99
2022-10-17T02:37:07.648Z,99.99
2022-10-17T02:38:07.643Z,99.99
2022-10-17T02:39:07.598Z,99.99
2022-10-17T02:40:07.581Z,99.99
2022-10-17T02:41:07.565Z,99.99
2022-10-17T02:42:07.556Z,99.99
2022-10-17T02:43:07.544Z,99.99
2022-10-17T02:44:07.534Z,99.99
2022-10-17T02:45:07.518Z,99.99
2022-10-17T02:46:07.504Z,99.99
2022-10-17T02:47:07.493Z,99.99
2022-10-17T02:48:07.478Z,99.99
2022-10-17T02:49:07.466Z,99.99
2022-10-17T02:50:07.453Z,99.99
2022-10-17T02:51:07.440Z,99.99
2022-10-17T02:52:07.426Z,99.99
2022-10-17T02:53:07.440Z,99.99
2022-10-17T02:54:07.417Z,99.99
2022-10-17T02:55:07.388Z,99.99
2022-10-17T02:56:07.375Z,99.99
2022-10-17T02:57:07.363Z,99.99
2022-10-17T02:58:07.351Z,99.99
2022-10-17T02:59:07.339Z,99.99
2022-10-17T03:00:07.324Z,99.99
2022-10-17T03:01:07.413Z,99.99
2022-10-17T03:02:07.298Z,99.99
2022-10-17T03:03:07.290Z,99.99
2022-10-17T03:04:07.273Z,99.99
2022-10-17T03:05:07.261Z,99.99
2022-10-17T03:06:07.251Z,99.99
2022-10-17T03:07:07.235Z,99.99
2022-10-17T03:08:07.223Z,99.99
2022-10-17T03:09:07.234Z,99.99
2022-10-17T03:10:07.199Z,99.99
2022-10-17T03:11:07.184Z,99.99
2022-10-17T03:12:07.174Z,99.99
2022-10-17T03:13:07.157Z,99.99
2022-10-17T03:14:07.142Z,99.99
2022-10-17T03:15:07.134Z,99.99
2022-10-17T03:16:07.123Z,99.99
2022-10-17T03:17:07.104Z,99.99
2022-10-17T03:18:07.091Z,99.99
2022-10-17T03:19:07.078Z,99.99
2022-10-17T03:20:07.069Z,99.99
2022-10-17T03:21:07.055Z,99.99
2022-10-17T03:22:07.049Z,99.99
2022-10-17T03:23:07.028Z,99.99
2022-10-17T03:24:07.015Z,99.99
2022-10-17T03:25:07.027Z,99.99
2022-10-17T03:26:06.989Z,99.99
2022-10-17T03:27:06.981Z,99.99
2022-10-17T03:28:06.968Z,99.99
2022-10-17T03:29:07.015Z,99.99
2022-10-17T03:30:06.940Z,99.99
2022-10-17T03:31:06.926Z,99.99
2022-10-17T03:32:06.915Z,99.99
2022-10-17T03:33:06.900Z,99.99
2022-10-17T03:34:06.894Z,99.99
2022-10-17T03:35:07.677Z,99.99
2022-10-17T03:36:06.868Z,99.99
2022-10-17T03:37:06.851Z,99.99
2022-10-17T03:38:06.843Z,99.99
2022-10-17T03:39:06.827Z,99.99
2022-10-17T03:40:06.811Z,99.99
2022-10-17T03:41:06.826Z,99.99
2022-10-17T03:42:06.789Z,99.99
2022-10-17T03:43:06.774Z,99.99
2022-10-17T03:44:06.760Z,99.99
2022-10-17T03:45:06.744Z,99.99
2022-10-17T03:46:06.782Z,99.99
2022-10-17T03:47:09.227Z,99.99
2022-10-17T03:48:06.706Z,99.99
2022-10-17T03:49:06.702Z,99.99
2022-10-17T03:50:06.675Z,99.99
2022-10-17T03:51:06.674Z,99.99
2022-10-17T03:52:06.658Z,99.99
2022-10-17T03:53:06.648Z,99.99
2022-10-17T03:54:06.635Z,99.99
2022-10-17T03:55:06.619Z,99.99
2022-10-17T03:56:06.606Z,99.99
2022-10-17T03:57:06.619Z,99.99
2022-10-17T03:58:06.580Z,99.99
2022-10-17T03:59:06.787Z,99.99
2022-10-17T04:00:06.559Z,99.99
2022-10-17T04:01:06.611Z,99.99
2022-10-17T04:02:06.529Z,99.99
2022-10-17T04:03:06.518Z,99.99
2022-10-17T04:04:06.512Z,99.99
2022-10-17T04:05:06.489Z,99.99
2022-10-17T04:06:06.485Z,99.99
2022-10-17T04:07:06.466Z,99.99
2022-10-17T04:08:06.453Z,99.99
2022-10-17T04:09:06.443Z,99.99
2022-10-17T04:10:06.429Z,99.99
2022-10-17T04:11:06.414Z,99.99
2022-10-17T04:12:06.406Z,99.99
2022-10-17T04:13:06.412Z,99.99
2022-10-17T04:14:06.375Z,99.99
2022-10-17T04:15:06.368Z,99.99
2022-10-17T04:16:06.347Z,99.99
2022-10-17T04:17:06.344Z,99.99
2022-10-17T04:18:06.390Z,99.99
2022-10-17T04:19:06.310Z,99.99
2022-10-17T04:20:06.303Z,99.99
2022-10-17T04:21:06.285Z,99.99
2022-10-17T04:22:06.270Z,99.99
2022-10-17T04:23:06.262Z,99.99
2022-10-17T04:24:06.248Z,99.99
2022-10-17T04:25:06.234Z,99.99
2022-10-17T04:26:06.234Z,99.99
2022-10-17T04:27:06.211Z,99.99
2022-10-17T04:28:06.201Z,99.99
2022-10-17T04:29:06.212Z,99.99
2022-10-17T04:30:06.172Z,99.99
2022-10-17T04:31:06.159Z,99.99
2022-10-17T04:32:06.149Z,99.99
2022-10-17T04:33:06.149Z,99.99
2022-10-17T04:34:06.129Z,99.99
2022-10-17T04:35:06.109Z,99.99
2022-10-17T04:36:06.096Z,99.99
2022-10-17T04:37:06.094Z,99.99
2022-10-17T04:38:06.075Z,99.99
2022-10-17T04:39:06.117Z,99.99
2022-10-17T04:40:06.046Z,99.99
2022-10-17T04:41:06.030Z,99.99
2022-10-17T04:42:06.017Z,99.99
2022-10-17T04:43:06.005Z,99.99
2022-10-17T04:44:05.998Z,99.99
2022-10-17T04:45:06.005Z,99.99
2022-10-17T04:46:05.974Z,99.99
2022-10-17T04:47:05.957Z,99.99
2022-10-17T04:48:05.944Z,99.99
2022-10-17T04:49:05.932Z,99.99
2022-10-17T04:50:05.919Z,99.99
2022-10-17T04:51:05.905Z,99.99
2022-10-17T04:52:05.894Z,99.99
2022-10-17T04:53:05.879Z,99.99
2022-10-17T04:54:05.869Z,99.99
2022-10-17T04:55:05.851Z,99.99
2022-10-17T04:56:05.844Z,99.99
2022-10-17T04:57:05.835Z,99.99
2022-10-17T04:58:05.814Z,99.99
2022-10-17T04:59:05.810Z,99.99
2022-10-17T05:00:05.841Z,99.99
2022-10-17T05:01:05.858Z,99.99
2022-10-17T05:02:05.762Z,99.99
2022-10-17T05:03:05.761Z,99.99
2022-10-17T05:04:05.741Z,99.99
2022-10-17T05:05:05.726Z,99.99
2022-10-17T05:06:05.713Z,99.99
2022-10-17T05:07:05.746Z,99.99
2022-10-17T05:08:05.682Z,99.99
2022-10-17T05:09:05.685Z,99.99
2022-10-17T05:10:05.861Z,99.99
2022-10-17T05:11:05.659Z,99.99
2022-10-17T05:12:08.094Z,99.99
2022-10-17T05:13:05.624Z,99.99
2022-10-17T05:14:05.610Z,99.99
2022-10-17T05:15:05.600Z,99.99
2022-10-17T05:16:05.591Z,99.99
2022-10-17T05:17:05.595Z,99.99
2022-10-17T05:18:05.559Z,99.99
2022-10-17T05:19:05.546Z,99.99
2022-10-17T05:20:05.535Z,99.99
2022-10-17T05:21:05.528Z,99.99
2022-10-17T05:22:05.511Z,99.99
2022-10-17T05:23:05.495Z,99.99
2022-10-17T05:24:05.485Z,99.99
2022-10-17T05:25:05.474Z,99.99
2022-10-17T05:26:05.480Z,99.99
2022-10-17T05:27:05.451Z,99.99
2022-10-17T05:28:05.447Z,99.99
2022-10-17T05:29:05.528Z,99.99
2022-10-17T05:30:05.409Z,99.99
2022-10-17T05:31:05.407Z,99.99
2022-10-17T05:32:05.383Z,99.99
2022-10-17T05:33:05.403Z,99.99
2022-10-17T05:34:07.960Z,99.99
2022-10-17T05:35:05.348Z,99.99
2022-10-17T05:36:05.331Z,99.99
2022-10-17T05:37:05.319Z,99.99
2022-10-17T05:38:05.308Z,99.99
2022-10-17T05:39:05.292Z,99.99
2022-10-17T05:40:05.279Z,99.99
2022-10-17T05:41:05.277Z,99.99
2022-10-17T05:42:05.264Z,99.99
2022-10-17T05:43:05.247Z,99.99
2022-10-17T05:44:05.755Z,99.99
2022-10-17T05:45:05.220Z,99.99
2022-10-17T05:46:05.219Z,99.99
2022-10-17T05:47:05.392Z,99.99
2022-10-17T05:48:05.187Z,99.99
2022-10-17T05:49:14.780Z,99.99
2022-10-17T05:50:06.181Z,99.99
2022-10-17T05:51:05.142Z,99.99
2022-10-17T05:52:05.141Z,99.99
2022-10-17T05:53:05.161Z,99.99
2022-10-17T05:54:05.105Z,99.99
2022-10-17T05:55:05.093Z,99.99
2022-10-17T05:56:05.079Z,99.99
2022-10-17T05:57:05.260Z,99.99
2022-10-17T05:58:05.052Z,99.99
2022-10-17T05:59:05.038Z,99.99
2022-10-17T06:00:05.027Z,99.99
2022-10-17T06:01:06.219Z,99.99
2022-10-17T06:02:05.057Z,99.99
2022-10-17T06:03:04.987Z,99.99
2022-10-17T06:04:04.973Z,99.99
2022-10-17T06:05:04.998Z,99.99
2022-10-17T06:06:04.952Z,99.99
2022-10-17T06:07:04.942Z,99.99
2022-10-17T06:08:05.123Z,99.99
2022-10-17T06:09:05.116Z,99.99
2022-10-17T06:10:04.984Z,99.99
2022-10-17T06:11:07.579Z,99.99
2022-10-17T06:12:04.874Z,99.99
2022-10-17T06:13:04.867Z,99.99
2022-10-17T06:14:04.845Z,99.99
2022-10-17T06:15:04.846Z,99.99
2022-10-17T06:16:04.814Z,99.99
2022-10-17T06:17:04.806Z,99.99
2022-10-17T06:18:04.801Z,99.99
2022-10-17T06:19:04.987Z,99.99
2022-10-17T06:20:04.775Z,99.99
2022-10-17T06:21:04.785Z,99.99
2022-10-17T06:22:04.742Z,99.99
2022-10-17T06:23:04.733Z,99.99
2022-10-17T06:24:04.719Z,99.99
2022-10-17T06:25:04.708Z,99.99
2022-10-17T06:26:04.687Z,99.99
2022-10-17T06:27:09.335Z,99.99
2022-10-17T06:28:05.702Z,99.99
2022-10-17T06:29:04.735Z,99.99
2022-10-17T06:30:04.655Z,99.99
2022-10-17T06:31:04.636Z,99.99
2022-10-17T06:32:04.611Z,99.87
2022-10-17T06:33:04.616Z,99.66
2022-10-17T06:34:04.595Z,99.25
2022-10-17T06:35:04.582Z,99.35
2022-10-17T06:36:04.563Z,99.46
2022-10-17T06:37:04.568Z,99.66
2022-10-17T06:38:04.539Z,99.77
2022-10-17T06:39:04.526Z,99.97
2022-10-17T06:40:04.515Z,99.99
2022-10-17T06:41:05.105Z,99.99
2022-10-17T06:42:04.485Z,99.99
2022-10-17T06:43:04.466Z,99.99
2022-10-17T06:44:04.459Z,99.93
2022-10-17T06:45:04.451Z,99.93
2022-10-17T06:46:04.435Z,99.93
2022-10-17T06:47:04.431Z,99.72
2022-10-17T06:48:04.404Z,99.72
2022-10-17T06:49:04.396Z,99.77
2022-10-17T06:50:04.387Z,99.63
2022-10-17T06:51:04.368Z,99.38
2022-10-17T06:52:04.358Z,98.82
2022-10-17T06:53:04.374Z,97.85
2022-10-17T06:54:04.531Z,96.67
2022-10-17T06:55:04.354Z,95.54
2022-10-17T06:56:04.308Z,95.15
2022-10-17T06:57:04.291Z,94.39
2022-10-17T06:58:04.289Z,92.96
2022-10-17T06:59:04.272Z,92.24
2022-10-17T07:00:04.493Z,92.03
2022-10-17T07:01:04.422Z,91.58
2022-10-17T07:02:04.254Z,90.92
2022-10-17T07:03:04.228Z,90.00
2022-10-17T07:04:04.403Z,89.59
2022-10-17T07:05:04.195Z,90.45
2022-10-17T07:06:04.194Z,91.07
2022-10-17T07:07:04.178Z,91.63
2022-10-17T07:08:04.153Z,92.34
2022-10-17T07:09:04.176Z,93.10
2022-10-17T07:10:04.126Z,93.41
2022-10-17T07:11:04.128Z,93.67
2022-10-17T07:12:04.111Z,94.08
2022-10-17T07:13:04.112Z,93.92
2022-10-17T07:14:04.080Z,93.77
2022-10-17T07:15:04.066Z,93.98
2022-10-17T07:16:04.059Z,94.29
2022-10-17T07:17:04.045Z,94.39
2022-10-17T07:18:04.031Z,95.00
2022-10-17T07:19:04.019Z,94.75
2022-10-17T07:20:04.009Z,93.79
2022-10-17T07:21:03.991Z,92.77
2022-10-17T07:22:03.981Z,92.77
2022-10-17T07:23:03.974Z,93.22
2022-10-17T07:24:03.964Z,93.52
2022-10-17T07:25:03.975Z,94.14
2022-10-17T07:26:03.970Z,94.34
2022-10-17T07:27:03.918Z,94.65
2022-10-17T07:28:03.911Z,95.17
2022-10-17T07:29:03.939Z,95.17
2022-10-17T07:30:03.876Z,95.47
2022-10-17T07:31:03.874Z,95.26
2022-10-17T07:32:04.064Z,95.26
2022-10-17T07:33:03.846Z,95.26
2022-10-17T07:34:03.827Z,95.84
2022-10-17T07:35:03.816Z,96.04
2022-10-17T07:36:03.802Z,96.14
2022-10-17T07:37:03.792Z,96.34
2022-10-17T07:38:03.777Z,96.66
2022-10-17T07:39:03.765Z,97.47
2022-10-17T07:40:03.745Z,97.67
2022-10-17T07:41:03.875Z,97.98
2022-10-17T07:42:03.728Z,98.04
2022-10-17T07:43:03.707Z,97.83
2022-10-17T07:44:03.710Z,97.17
2022-10-17T07:45:03.690Z,96.97
2022-10-17T07:46:03.675Z,96.56
2022-10-17T07:47:03.667Z,96.77
2022-10-17T07:48:03.655Z,97.17
2022-10-17T07:49:03.638Z,97.44
2022-10-17T07:50:03.627Z,97.33
2022-10-17T07:51:03.616Z,97.64
2022-10-17T07:52:03.593Z,97.44
2022-10-17T07:53:03.586Z,97.74
2022-10-17T07:54:03.573Z,97.85
2022-10-17T07:55:03.562Z,97.90
2022-10-17T07:56:03.554Z,97.80
2022-10-17T07:57:03.560Z,97.39
2022-10-17T07:58:03.526Z,97.29
2022-10-17T07:59:05.300Z,97.34
2022-10-17T08:00:03.500Z,97.34
2022-10-17T08:01:03.535Z,97.04
2022-10-17T08:02:03.481Z,96.69
2022-10-17T08:03:03.464Z,96.48
2022-10-17T08:04:03.677Z,96.69
2022-10-17T08:05:03.445Z,96.18
2022-10-17T08:06:03.420Z,95.83
2022-10-17T08:07:19.689Z,95.73
2022-10-17T08:08:04.430Z,95.48
2022-10-17T08:09:03.392Z,95.07
2022-10-17T08:10:03.448Z,94.56
2022-10-17T08:11:03.353Z,94.62
2022-10-17T08:12:03.346Z,94.42
2022-10-17T08:13:03.363Z,94.01
2022-10-17T08:14:03.321Z,93.86
2022-10-17T08:15:03.518Z,93.66
2022-10-17T08:16:03.297Z,93.45
2022-10-17T08:17:03.287Z,93.21
2022-10-17T08:18:03.268Z,92.80
2022-10-17T08:19:03.306Z,92.76
2022-10-17T08:20:03.258Z,92.82
2022-10-17T08:21:03.234Z,91.60
2022-10-17T08:22:03.220Z,90.19
2022-10-17T08:23:03.410Z,88.93
2022-10-17T08:24:03.195Z,88.34
2022-10-17T08:25:03.181Z,86.13
2022-10-17T08:26:03.182Z,84.22
2022-10-17T08:27:03.156Z,82.53
2022-10-17T08:28:03.202Z,79.96
2022-10-17T08:29:03.274Z,80.77
2022-10-17T08:30:03.116Z,79.92
2022-10-17T08:31:03.107Z,79.41
2022-10-17T08:32:09.950Z,79.04
2022-10-17T08:33:03.076Z,78.13
2022-10-17T08:34:03.077Z,77.49
2022-10-17T08:35:03.062Z,76.68
2022-10-17T08:36:03.038Z,76.24
2022-10-17T08:37:03.086Z,75.80
2022-10-17T08:38:03.017Z,74.32
2022-10-17T08:39:03.011Z,73.78
2022-10-17T08:40:02.991Z,72.14
2022-10-17T08:41:02.987Z,71.53
2022-10-17T08:42:02.968Z,70.93
2022-10-17T08:43:02.955Z,71.87
2022-10-17T08:44:02.942Z,73.52
2022-10-17T08:45:02.960Z,74.02
2022-10-17T08:46:03.187Z,73.41
2022-10-17T08:47:02.903Z,73.82
2022-10-17T08:48:02.890Z,72.81
2022-10-17T08:49:03.078Z,72.47
2022-10-17T08:50:02.863Z,72.24
2022-10-17T08:51:02.848Z,71.50
2022-10-17T08:52:02.846Z,72.00
2022-10-17T08:53:02.856Z,71.87
2022-10-17T08:54:02.817Z,71.97
2022-10-17T08:55:02.816Z,72.37
2022-10-17T08:56:02.802Z,71.70
2022-10-17T08:57:02.780Z,70.86
2022-10-17T08:58:02.963Z,70.53
2022-10-17T08:59:02.745Z,70.69
2022-10-17T09:00:02.934Z,70.19
2022-10-17T09:01:02.747Z,71.03
2022-10-17T09:02:02.724Z,70.63
2022-10-17T09:03:02.776Z,70.86
2022-10-17T09:04:02.881Z,70.96
2022-10-17T09:05:02.674Z,70.93
2022-10-17T09:06:02.661Z,68.65
2022-10-17T09:07:02.646Z,66.92
2022-10-17T09:08:02.638Z,66.12
2022-10-17T09:09:02.619Z,65.01
2022-10-17T09:10:02.610Z,65.52
2022-10-17T09:11:02.791Z,65.89
2022-10-17T09:12:02.579Z,67.09
2022-10-17T09:13:07.737Z,68.02
2022-10-17T09:14:02.551Z,68.46
2022-10-17T09:15:02.545Z,69.29
2022-10-17T09:16:02.529Z,70.69
2022-10-17T09:17:02.540Z,71.53
2022-10-17T09:18:02.704Z,69.42
2022-10-17T09:19:02.494Z,69.35
2022-10-17T09:20:02.479Z,70.09
2022-10-17T09:21:02.468Z,70.53
2022-10-17T09:22:02.463Z,72.47
2022-10-17T09:23:02.453Z,74.08
2022-10-17T09:24:09.704Z,74.78
2022-10-17T09:25:03.450Z,74.11
2022-10-17T09:26:02.401Z,72.71
2022-10-17T09:27:02.389Z,71.20
2022-10-17T09:28:02.372Z,70.79
2022-10-17T09:29:02.445Z,67.89
2022-10-17T09:30:02.349Z,66.66
2022-10-17T09:31:02.339Z,65.99
2022-10-17T09:32:02.526Z,67.22
2022-10-17T09:33:02.349Z,68.32
2022-10-17T09:34:02.302Z,68.93
2022-10-17T09:35:02.289Z,67.25
2022-10-17T09:36:02.277Z,67.09
2022-10-17T09:37:02.279Z,68.22
2022-10-17T09:38:02.250Z,70.53
2022-10-17T09:39:02.238Z,69.86
2022-10-17T09:40:02.223Z,70.36
2022-10-17T09:41:02.476Z,70.06
2022-10-17T09:42:02.207Z,69.32
2022-10-17T09:43:02.188Z,68.99
2022-10-17T09:44:02.171Z,67.93
2022-10-17T09:45:02.203Z,65.52
2022-10-17T09:46:02.149Z,65.16
2022-10-17T09:47:02.143Z,63.73
2022-10-17T09:48:02.174Z,63.90
2022-10-17T09:50:02.163Z,62.20
2022-10-17T09:51:14.674Z,61.96
2022-10-17T09:52:03.104Z,64.03
2022-10-17T09:53:02.062Z,66.96
2022-10-17T09:54:02.050Z,66.39
2022-10-17T09:55:02.049Z,68.22
2022-10-17T09:56:02.029Z,68.35
2022-10-17T09:57:02.022Z,69.06
2022-10-17T09:58:02.007Z,69.06
2022-10-17T09:59:01.989Z,68.96
2022-10-17T10:00:02.113Z,68.55
2022-10-17T10:01:02.007Z,68.02
2022-10-17T10:02:01.952Z,67.96
2022-10-17T10:03:01.935Z,68.65
2022-10-17T10:04:01.935Z,68.12
2022-10-17T10:05:06.398Z,67.82
2022-10-17T10:06:01.894Z,67.79
2022-10-17T10:07:01.889Z,67.96
2022-10-17T10:08:02.063Z,67.36
2022-10-17T10:09:01.859Z,67.46
2022-10-17T10:10:01.847Z,66.75
2022-10-17T10:11:01.839Z,67.16
2022-10-17T10:12:01.837Z,66.99
2022-10-17T10:13:01.807Z,66.28
2022-10-17T10:14:01.799Z,66.62
2022-10-17T10:15:01.980Z,66.82
2022-10-17T10:16:01.772Z,67.59
2022-10-17T10:17:01.756Z,65.69
2022-10-17T10:18:01.746Z,70.19
2022-10-17T10:19:04.680Z,66.69
2022-10-17T10:20:02.750Z,66.86
2022-10-17T10:21:01.731Z,66.75
2022-10-17T10:22:01.727Z,64.25
2022-10-17T10:23:01.684Z,66.25
2022-10-17T10:24:01.672Z,65.75
2022-10-17T10:25:01.652Z,65.33
2022-10-17T10:26:01.649Z,65.22
2022-10-17T10:27:01.641Z,65.02
2022-10-17T10:28:01.801Z,64.00
2022-10-17T10:29:01.724Z,63.02
2022-10-17T10:30:01.615Z,63.12
2022-10-17T10:31:01.584Z,62.62
2022-10-17T10:32:01.587Z,62.32
2022-10-17T10:33:01.551Z,63.32
2022-10-17T10:34:01.542Z,62.95
2022-10-17T10:35:01.534Z,64.12
2022-10-17T10:36:01.527Z,63.32
2022-10-17T10:37:01.536Z,64.45
2022-10-17T10:38:01.493Z,65.83
2022-10-17T10:39:03.934Z,65.72
2022-10-17T10:40:01.506Z,64.03
2022-10-17T10:41:01.452Z,63.82
2022-10-17T10:42:01.450Z,63.22
2022-10-17T10:43:05.341Z,64.22
2022-10-17T10:44:01.419Z,64.12
2022-10-17T10:45:01.438Z,65.33
2022-10-17T10:46:01.384Z,64.92
2022-10-17T10:47:01.373Z,61.99
2022-10-17T10:48:01.361Z,62.99
2022-10-17T10:49:01.355Z,62.59
2022-10-17T10:50:01.338Z,62.79
2022-10-17T10:51:01.326Z,64.19
2022-10-17T10:52:01.530Z,62.79
2022-10-17T10:53:01.321Z,62.49
2022-10-17T10:54:01.290Z,61.89
2022-10-17T10:55:01.290Z,62.29
2022-10-17T10:56:01.261Z,61.89
2022-10-17T10:57:01.246Z,61.79
2022-10-17T10:58:01.248Z,61.49
2022-10-17T10:59:01.232Z,61.40
2022-10-17T11:00:01.210Z,61.40
2022-10-17T11:01:01.287Z,60.69
2022-10-17T11:02:01.195Z,59.86
2022-10-17T11:03:01.921Z,61.16
2022-10-17T11:04:01.161Z,59.69
2022-10-17T11:05:01.167Z,60.79
2022-10-17T11:06:01.144Z,60.59
2022-10-17T11:07:01.125Z,60.99
2022-10-17T11:08:01.111Z,59.99
2022-10-17T11:09:01.122Z,60.36
2022-10-17T11:10:01.114Z,60.06
2022-10-17T11:11:01.075Z,59.47
2022-10-17T11:12:01.058Z,58.97
2022-10-17T11:13:01.258Z,61.26
2022-10-17T11:14:01.030Z,61.36
2022-10-17T11:15:01.018Z,61.46
2022-10-17T11:16:01.011Z,59.27
2022-10-17T11:17:00.999Z,59.47
2022-10-17T11:18:00.980Z,59.56
2022-10-17T11:19:00.971Z,58.97
2022-10-17T11:20:00.968Z,60.27
2022-10-17T11:21:00.945Z,61.09
2022-10-17T11:22:00.937Z,61.79
2022-10-17T11:23:00.924Z,62.19
2022-10-17T11:24:00.916Z,63.89
2022-10-17T11:25:00.922Z,63.49
2022-10-17T11:26:00.881Z,63.79
2022-10-17T11:27:00.879Z,65.99
2022-10-17T11:28:04.615Z,64.09
2022-10-17T11:29:00.892Z,63.49
2022-10-17T11:30:00.831Z,62.39
2022-10-17T11:31:03.386Z,61.19
2022-10-17T11:32:00.800Z,62.62
2022-10-17T11:33:00.789Z,62.70
2022-10-17T11:34:00.779Z,62.32
2022-10-17T11:35:00.967Z,61.22
2022-10-17T11:36:00.947Z,61.62
2022-10-17T11:37:00.737Z,61.22
2022-10-17T11:38:00.732Z,61.42
2022-10-17T11:39:00.714Z,60.92
2022-10-17T11:40:00.708Z,61.52
2022-10-17T11:41:00.715Z,62.32
2022-10-17T11:42:03.372Z,63.42
2022-10-17T11:43:00.665Z,62.12
2022-10-17T11:44:00.855Z,62.12
2022-10-17T11:45:00.637Z,62.42
2022-10-17T11:46:00.614Z,63.12
2022-10-17T11:47:00.812Z,63.22
2022-10-17T11:48:00.607Z,62.62
2022-10-17T11:49:00.591Z,63.32
2022-10-17T11:51:59.711Z,63.56
2022-10-17T11:52:02.122Z,65.86
2022-10-17T11:53:00.790Z,65.52
2022-10-17T11:54:00.718Z,65.62
2022-10-17T11:55:00.725Z,63.82
2022-10-17T11:56:00.513Z,65.02
2022-10-17T11:57:00.705Z,63.72
2022-10-17T11:58:00.510Z,64.62
2022-10-17T11:59:00.477Z,63.62
2022-10-17T12:00:00.453Z,62.62
2022-10-17T12:01:00.434Z,64.09
2022-10-17T12:02:00.428Z,62.29
2022-10-17T12:03:00.408Z,62.70
2022-10-17T12:04:00.455Z,61.22
2022-10-17T12:05:00.389Z,62.12
2022-10-17T12:06:00.370Z,62.32
2022-10-17T12:07:00.360Z,61.62
2022-10-17T12:08:00.345Z,60.82
2022-10-17T12:09:00.332Z,60.32
2022-10-17T12:10:00.322Z,60.69
2022-10-17T12:11:01.146Z,61.59
2022-10-17T12:12:00.295Z,61.40
2022-10-17T12:13:00.305Z,58.80
2022-10-17T12:14:04.929Z,59.72
2022-10-17T12:15:00.258Z,60.49
2022-10-17T12:16:00.243Z,62.39
2022-10-17T12:17:06.243Z,60.39
2022-10-17T12:18:00.223Z,59.49
2022-10-17T12:19:00.206Z,60.59
2022-10-17T12:20:00.192Z,58.49
2022-10-17T12:21:00.201Z,58.22
2022-10-17T12:22:00.173Z,59.22
2022-10-17T12:23:00.153Z,58.92
2022-10-17T12:24:00.142Z,60.52
2022-10-17T12:25:00.131Z,57.92
2022-10-17T12:26:03.378Z,57.82
2022-10-17T12:27:00.117Z,58.02
2022-10-17T12:28:00.090Z,58.02
2022-10-17T12:29:00.276Z,58.59
2022-10-17T12:30:00.072Z,58.80
2022-10-17T12:31:00.052Z,57.09
2022-10-17T12:32:00.035Z,58.69
2022-10-17T12:33:06.143Z,58.49
2022-10-17T12:34:07.049Z,58.80
2022-10-17T12:35:01.136Z,58.29
2022-10-17T12:35:59.977Z,56.99
2022-10-17T12:36:59.980Z,56.89
2022-10-17T12:37:59.968Z,57.39
2022-10-17T12:38:59.953Z,56.59
2022-10-17T12:39:59.940Z,57.89
2022-10-17T12:40:59.923Z,57.89
2022-10-17T12:41:59.921Z,59.17
2022-10-17T12:42:59.895Z,57.67
2022-10-17T12:43:59.884Z,56.16
2022-10-17T12:44:59.924Z,56.77
2022-10-17T12:45:59.854Z,56.67
2022-10-17T12:46:59.843Z,57.57
2022-10-17T12:47:59.893Z,57.87
2022-10-17T12:48:59.825Z,56.16
2022-10-17T12:49:59.811Z,55.97
2022-10-17T12:51:17.681Z,57.07
2022-10-17T12:52:01.015Z,58.47
2022-10-17T12:52:59.765Z,55.66
2022-10-17T12:53:59.759Z,56.96